CLEVELAND ARTCC (ZOB) FACILITY RUNWAY SELECTOR
METARS UPDATED AT 0225Z

Page auto refreshed every 5 minutes
FACILITYWINDVISIBILITY
CEILING
RUNWAY FLOWAPPROACHMETAR
KAGC250@0710SM
OVC015
West Flow
DEP: 28, 31 (GA)
ARR: 28, 31 (GA)
Instrument ApproachKAGC 170153Z 25007KT 10SM OVC015 05/04 A2998 RMK AO2 SLP165 T00500039
KBKL210@107SM
----
24 Flow
DEP: 24L (GA), 24R
ARR: 24L (GA), 24R
Visual ApproachKBKL 170153Z 21010KT 7SM SCT012 03/01 A3001 RMK AO2 SLP165 T00330011
KBUF250@076SM
BKN008
23 Flow
DEP: 23
ARR: 23
Instrument ApproachKBUF 170207Z 25007KT 6SM BR BKN008 OVC013 02/01 A2992 RMK AO2 T00220011 $
KCAK270@066SM
OVC008
South Flow
DEP: 19
ARR: 23
Instrument ApproachKCAK 170151Z 27006KT 6SM HZ OVC008 04/01 A3001 RMK AO2 SLP169 T00390011
KCGF240@083SM
OVC005
24 Flow
DEP: 24
ARR: 24
Instrument ApproachKCGF 170145Z 24008KT 3SM BR OVC005 03/02 A3000
KCLE230@086SM
----
North Flow
DEP: 24L
ARR: 24R
Visual ApproachKCLE 170212Z 23008KT 6SM BR SCT009 04/02 A3003 RMK AO2 T00390022
KDTW270@069SM
----
Calm Wind Flow
DEP: 21R, 22L
ARR: 21L, 22R
Visual ApproachKDTW 170153Z 27006KT 9SM SCT200 01/M03 A3000 RMK AO2 SLP166 T00111033 $
KERI220@046SM
BKN009
Calm Wind Flow
DEP: 6
ARR: 6
Instrument ApproachKERI 170151Z 22004KT 6SM BR BKN009 OVC020 03/01 A2997 RMK AO2 SLP154 T00280011
KFNT240@057SM
----
27 Flow
DEP: 27
ARR: 27
Visual ApproachKFNT 170153Z 24005KT 7SM CLR M01/M02 A2999 RMK AO2 SLP163 I1000 T10111022
KIAG260@051 1/4SM
OVC002
South Flow
DEP: 28R, 28L (GA)
ARR: 28R, 28L (GA)
Instrument ApproachKIAG 170208Z 26005KT 1 1/4SM R28R/6000VP6000FT BR OVC002 01/01 A2992 RMK AO2 T00110006
KJST290@11/G161/4S
VV002
33 Flow
DEP: 33
ARR: 33
Instrument ApproachKJST 170212Z 29011G16KT 1/4SM FG VV002 02/01 A2991 RMK AO2 T00220011
KLAN240@077SM
----
27 Flow
DEP: 27
ARR: 27
Visual ApproachKLAN 170153Z 24007KT 7SM CLR 01/00 A3000 RMK AO2 SLP168 T00110000
KPIT250@0410SM
OVC014
Calm Wind Flow
DEP: 28R, 28C
ARR: 28R, 28L, 32 (GA)
Instrument ApproachKPIT 170151Z 25004KT 10SM OVC014 05/04 A2999 RMK AO2 SLP170 T00500039
KROCCalm4SM
BKN090
Calm Wind Flow
DEP: 22
ARR: 22
Visual ApproachKROC 170154Z 00000KT 4SM BR FEW006 SCT025 BKN090 OVC200 01/01 A2991 RMK AO2 SLP138 T00110006
KTOL270@0910SM
----
25 Flow
DEP: 25
ARR: 25
Visual ApproachKTOL 170152Z 27009KT 10SM CLR 03/M03 A3002 RMK AO2 SLP173 T00281028 $
KYNG270@0710SM
OVC006
23 Flow
DEP: 23
ARR: 23
Instrument ApproachKYNG 170151Z 27007KT 10SM OVC006 04/03 A2997 RMK AO2 SLP158 T00440028
NOTE: Runway selection based on current VATSIM metar and ZOB SOPs.
Ceiling = Lowest reported ceiling.
GA = General Aviation aircraft only.
METAR Decode Key